Time;durP1;ratioP1;P1;durP2;ratioP2;P2;SDS_P1;SDS_P2;PMS_P1;PMS_P2;Temp;Humidity;BMP_temperature;BMP_pressure;BME280_temperature;BME280_humidity;BME280_pressure;Samples;Min_cycle;Max_cycle;Signal;HPM_P1;HPM_P2
2022/07/27 00:00:15;;;;;;;1020.63;953.63;;;;;;;21.38;39.12;101160.47;684688;28;23244;-66
2022/07/27 00:00:36;;;;;;;1017.63;950.72;;;;;;;21.39;38.85;101158.53;683769;28;44306;-66
2022/07/27 00:00:59;;;;;;;1024.85;957.65;;;;;;;21.39;38.79;101164.03;684560;28;21534;-66
2022/07/27 00:01:20;;;;;;;1028.25;960.97;;;;;;;21.37;38.85;101158.78;684017;28;46330;-67
2022/07/27 00:01:44;;;;;;;1028.78;961.35;;;;;;;21.39;38.94;101158.53;680851;28;111173;-67
2022/07/27 00:02:06;;;;;;;1039.47;971.70;;;;;;;21.38;38.82;101162.38;685132;28;22380;-67
2022/07/27 00:02:27;;;;;;;1038.13;970.53;;;;;;;21.34;38.57;101162.00;683933;28;44378;-66
2022/07/27 00:02:49;;;;;;;1009.92;943.33;;;;;;;21.38;38.86;101156.88;684324;28;22406;-67
2022/07/27 00:03:10;;;;;;;1004.60;938.17;;;;;;;21.37;39.06;101155.19;684077;28;46318;-66
2022/07/27 00:03:31;;;;;;;1013.75;946.95;;;;;;;21.36;39.09;101153.53;684936;28;15234;-66
2022/07/27 00:03:53;;;;;;;1025.65;958.40;;;;;;;21.37;38.69;101150.53;684082;28;22363;-67
2022/07/27 00:04:14;;;;;;;1030.70;963.25;;;;;;;21.38;38.89;101163.22;683655;28;44369;-66
2022/07/27 00:04:36;;;;;;;1023.10;955.95;;;;;;;21.38;38.84;101160.47;684720;28;23421;-67
2022/07/27 00:04:57;;;;;;;1016.35;949.50;;;;;;;21.38;38.85;101154.13;683636;28;46562;-67
2022/07/27 00:05:19;;;;;;;1020.50;953.50;;;;;;;21.33;38.88;101143.00;684395;28;22415;-67
2022/07/27 00:05:41;;;;;;;1032.50;964.90;;;;;;;21.35;39.01;101147.19;683430;28;44381;-67
2022/07/27 00:06:02;;;;;;;1026.03;958.75;;;;;;;21.38;38.89;101154.97;683927;28;45257;-66
2022/07/27 00:06:24;;;;;;;1030.55;963.05;;;;;;;21.36;38.56;101150.78;674992;28;22405;-67
2022/07/27 00:06:45;;;;;;;1026.60;959.33;;;;;;;21.35;38.87;101152.69;685837;28;46290;-67
2022/07/27 00:07:07;;;;;;;1020.70;953.53;;;;;;;21.35;38.72;101157.38;686539;28;22008;-66
2022/07/27 00:07:28;;;;;;;1009.85;943.15;;;;;;;21.38;38.79;101163.22;685919;28;46332;-67
2022/07/27 00:07:50;;;;;;;1022.17;955.05;;;;;;;21.36;38.68;101153.53;686680;28;22274;-66
2022/07/27 00:08:11;;;;;;;1030.25;962.80;;;;;;;21.37;38.76;101150.53;686940;28;23475;-66
2022/07/27 00:08:33;;;;;;;1022.95;955.85;;;;;;;21.33;38.73;101154.84;685443;28;46143;-66
2022/07/27 00:08:55;;;;;;;1030.22;962.88;;;;;;;21.35;38.78;101157.38;684302;28;22180;-67
2022/07/27 00:09:18;;;;;;;1027.88;960.58;;;;;;;21.33;38.73;101154.00;683965;28;45210;-67
2022/07/27 00:09:39;;;;;;;1021.05;954.00;;;;;;;21.33;38.70;101157.59;682154;28;90148;-67
2022/07/27 00:10:02;;;;;;;1023.60;956.50;;;;;;;21.23;38.64;101149.94;683694;28;44351;-66
2022/07/27 00:10:25;;;;;;;1037.68;969.97;;;;;;;21.28;38.72;101154.72;683486;28;53227;-66
2022/07/27 00:10:46;;;;;;;1031.10;963.67;;;;;;;21.28;38.76;101162.94;683421;28;45255;-66
2022/07/27 00:11:08;;;;;;;1022.13;955.00;;;;;;;21.26;38.86;101153.28;684396;28;22414;-67
2022/07/27 00:11:29;;;;;;;1019.05;952.05;;;;;;;21.29;38.82;101158.31;682720;28;46321;-66
2022/07/27 00:11:51;;;;;;;1028.30;960.90;;;;;;;21.29;38.75;101158.31;684213;28;21559;-67
2022/07/27 00:12:12;;;;;;;1027.50;960.20;;;;;;;21.27;38.67;101161.31;683826;28;67462;-66
2022/07/27 00:12:34;;;;;;;1018.28;951.38;;;;;;;21.31;38.54;101167.16;684671;28;23777;-66
2022/07/27 00:12:55;;;;;;;1033.80;966.15;;;;;;;21.30;38.66;101166.31;684562;28;21451;-66
2022/07/27 00:13:16;;;;;;;1045.97;977.92;;;;;;;21.29;38.47;101163.81;684639;28;23594;-66
2022/07/27 00:13:39;;;;;;;1049.38;981.17;;;;;;;21.25;38.57;101157.94;684007;28;22388;-66
2022/07/27 00:14:00;;;;;;;1058.90;990.15;;;;;;;21.28;38.57;101165.69;682884;28;69434;-66
2022/07/27 00:14:21;;;;;;;1041.82;973.83;;;;;;;21.26;38.42;101165.09;684832;28;22179;-66
2022/07/27 00:14:43;;;;;;;1039.25;971.45;;;;;;;21.24;38.58;101170.84;684652;28;22423;-66
2022/07/27 00:15:07;;;;;;;1045.35;977.35;;;;;;;21.25;38.33;101166.16;684097;28;44380;-66
2022/07/27 00:15:28;;;;;;;1014.47;947.58;;;;;;;21.25;38.52;101166.16;682354;28;92283;-66
2022/07/27 00:15:49;;;;;;;1012.67;945.88;;;;;;;21.23;38.52;101171.06;684583;28;22385;-66
2022/07/27 00:16:10;;;;;;;1034.22;966.63;;;;;;;21.22;38.71;101167.50;684993;28;22393;-66
2022/07/27 00:16:33;;;;;;;1027.53;960.15;;;;;;;21.23;38.66;101168.34;683003;28;21518;-66
2022/07/27 00:16:54;;;;;;;1010.15;943.38;;;;;;;21.20;38.53;101172.38;683589;28;45037;-66
2022/07/27 00:17:15;;;;;;;1014.33;947.35;;;;;;;21.18;38.50;101166.28;684261;28;45065;-67
2022/07/27 00:17:36;;;;;;;1037.10;969.33;;;;;;;21.16;38.51;101162.09;684701;28;22391;-66
2022/07/27 00:17:59;;;;;;;1027.50;960.08;;;;;;;21.16;38.69;101162.09;684454;28;23429;-66
2022/07/27 00:18:21;;;;;;;1008.17;941.53;;;;;;;21.15;38.07;101161.28;682891;28;67876;-66
2022/07/27 00:18:42;;;;;;;1020.97;953.83;;;;;;;21.19;38.33;101170.72;684602;28;21546;-66
2022/07/27 00:19:04;;;;;;;1030.45;962.90;;;;;;;21.17;38.39;101155.53;684201;28;21550;-66
2022/07/27 00:19:26;;;;;;;1023.15;955.88;;;;;;;21.21;38.19;101168.56;682801;28;69067;-67
2022/07/27 00:19:47;;;;;;;1020.25;953.08;;;;;;;21.20;38.07;101158.66;684299;28;21507;-67
2022/07/27 00:20:09;;;;;;;1026.93;959.53;;;;;;;21.17;38.15;101161.88;685516;28;21566;-66
2022/07/27 00:20:30;;;;;;;1035.07;967.38;;;;;;;21.17;37.89;101155.53;683731;28;44273;-66
2022/07/27 00:20:53;;;;;;;1055.00;986.45;;;;;;;21.20;37.96;101163.31;683587;28;46177;-66
2022/07/27 00:21:14;;;;;;;1040.20;972.30;;;;;;;21.17;37.70;101159.13;683997;28;44373;-66
2022/07/27 00:21:35;;;;;;;1025.63;958.30;;;;;;;21.21;37.77;101157.59;683015;28;23470;-66
2022/07/27 00:21:58;;;;;;;1033.53;965.75;;;;;;;21.20;37.86;101166.06;684347;28;23362;-66
2022/07/27 00:22:21;;;;;;;1040.85;972.85;;;;;;;21.17;37.49;101161.03;681610;28;92256;-67
2022/07/27 00:22:49;;;;;;;1050.35;981.97;;;;;;;21.18;37.48;101163.53;683074;28;60664;-66
2022/07/27 00:23:11;;;;;;;1039.85;971.85;;;;;;;21.19;37.54;101164.38;684678;28;22203;-66
2022/07/27 00:23:33;;;;;;;1027.60;960.20;;;;;;;21.20;37.47;101160.56;683504;28;45475;-66
2022/07/27 00:23:54;;;;;;;1040.32;972.42;;;;;;;21.20;37.65;101160.56;683333;28;45268;-66
2022/07/27 00:24:15;;;;;;;1037.93;970.20;;;;;;;21.20;37.37;101166.88;684736;28;22313;-66
2022/07/27 00:24:36;;;;;;;1044.28;976.35;;;;;;;21.20;37.42;101171.56;684706;28;23477;-66
2022/07/27 00:24:58;;;;;;;1045.03;977.13;;;;;;;21.19;37.45;101167.13;684536;28;22331;-67
2022/07/27 00:25:22;;;;;;;1050.43;982.28;;;;;;;21.17;37.66;101164.63;683823;28;45227;-66
2022/07/27 00:25:43;;;;;;;1043.53;975.63;;;;;;;21.17;37.43;101161.88;682896;28;72814;-66
2022/07/27 00:26:05;;;;;;;1056.90;988.50;;;;;;;21.18;37.65;101162.72;684607;28;46395;-66
2022/07/27 00:26:27;;;;;;;1045.80;977.92;;;;;;;21.18;37.47;101169.03;682961;28;44355;-68
2022/07/27 00:26:49;;;;;;;1037.50;969.92;;;;;;;21.15;37.30;101164.03;683690;28;46356;-68
2022/07/27 00:27:10;;;;;;;1047.25;979.10;;;;;;;21.15;37.48;101169.50;682209;28;67454;-67
2022/07/27 00:27:31;;;;;;;1038.18;970.40;;;;;;;21.16;37.48;101164.84;681503;28;21513;-67
2022/07/27 00:27:53;;;;;;;1015.10;948.30;;;;;;;21.14;37.48;101167.00;681169;28;22417;-67
2022/07/27 00:28:14;;;;;;;992.53;926.55;;;;;;;21.16;37.21;101168.44;681501;29;21536;-66
2022/07/27 00:28:36;;;;;;;994.65;928.75;;;;;;;21.15;37.34;101176.94;682477;29;23291;-67
2022/07/27 00:28:57;;;;;;;1011.67;945.07;;;;;;;21.13;37.60;101176.31;680113;28;69147;-66
2022/07/27 00:29:18;;;;;;;1011.90;945.33;;;;;;;21.13;37.45;101168.06;684153;28;45302;-67
2022/07/27 00:29:40;;;;;;;1004.95;938.67;;;;;;;21.16;37.40;101176.69;686420;28;22407;-67
2022/07/27 00:30:03;;;;;;;1010.03;943.58;;;;;;;21.13;37.10;101174.41;683707;28;46290;-67
2022/07/27 00:30:24;;;;;;;1006.90;940.57;;;;;;;21.14;37.34;101169.75;683016;28;67311;-66
2022/07/27 00:30:46;;;;;;;1025.43;958.35;;;;;;;21.07;37.44;101161.63;685830;28;44365;-66
2022/07/27 00:31:07;;;;;;;1010.45;943.88;;;;;;;21.13;37.24;101170.81;687049;28;22390;-67
2022/07/27 00:31:29;;;;;;;1003.65;937.38;;;;;;;21.08;37.21;101168.78;686169;28;21543;-67
2022/07/27 00:31:50;;;;;;;1013.47;946.83;;;;;;;21.09;37.24;101167.72;685014;28;69299;-66
2022/07/27 00:32:11;;;;;;;1007.88;941.47;;;;;;;21.10;37.31;101168.53;686623;28;23470;-66
2022/07/27 00:32:33;;;;;;;1016.47;949.78;;;;;;;21.09;37.38;101162.22;686539;28;21531;-66
2022/07/27 00:32:55;;;;;;;1029.57;962.33;;;;;;;21.11;37.28;101170.22;684520;28;21486;-66
2022/07/27 00:33:17;;;;;;;1035.60;968.15;;;;;;;21.10;37.08;101171.28;683232;28;67468;-67
2022/07/27 00:33:39;;;;;;;1049.05;980.97;;;;;;;21.05;37.28;101166.53;683462;28;45240;-66
2022/07/27 00:34:00;;;;;;;1043.05;975.25;;;;;;;21.06;37.10;101163.56;684348;28;22375;-66
2022/07/27 00:34:21;;;;;;;1034.30;966.92;;;;;;;21.05;37.16;101167.38;684968;28;14804;-66
2022/07/27 00:34:42;;;;;;;1037.50;969.97;;;;;;;21.05;37.09;101166.53;684330;28;20841;-66
2022/07/27 00:35:05;;;;;;;1037.53;970.03;;;;;;;21.00;36.99;101170.00;684402;28;21532;-67
2022/07/27 00:35:27;;;;;;;1045.28;977.50;;;;;;;21.02;37.19;101169.75;681665;28;92249;-66
2022/07/27 00:35:48;;;;;;;1023.55;956.55;;;;;;;21.03;37.21;101171.41;684996;28;23478;-66
2022/07/27 00:36:10;;;;;;;1026.15;959.05;;;;;;;21.00;37.04;101160.91;684386;28;22216;-66
2022/07/27 00:36:32;;;;;;;1026.47;959.42;;;;;;;21.00;37.17;101155.41;682871;28;46372;-67
2022/07/27 00:36:53;;;;;;;1028.30;961.05;;;;;;;21.01;37.19;101168.06;683192;28;46386;-66
2022/07/27 00:37:14;;;;;;;1012.70;946.00;;;;;;;20.99;37.27;101165.56;684013;28;21554;-66
2022/07/27 00:37:35;;;;;;;1000.17;934.08;;;;;;;21.01;37.24;101168.91;684281;28;22431;-66
2022/07/27 00:37:57;;;;;;;995.28;929.38;;;;;;;21.02;36.91;101169.75;684406;28;22389;-66
2022/07/27 00:38:19;;;;;;;994.40;928.50;;;;;;;21.01;37.02;101162.56;683836;28;44395;-66
2022/07/27 00:38:40;;;;;;;994.97;929.08;;;;;;;20.99;36.98;101164.72;684862;28;16166;-66
2022/07/27 00:39:02;;;;;;;1013.75;947.08;;;;;;;20.96;36.77;101167.94;683579;28;46297;-66
2022/07/27 00:39:23;;;;;;;1013.92;947.22;;;;;;;20.96;36.81;101162.47;685072;28;3695;-66
2022/07/27 00:39:45;;;;;;;996.00;930.00;;;;;;;20.95;36.84;101166.25;684427;28;22244;-66
2022/07/27 00:40:07;;;;;;;1000.25;934.15;;;;;;;20.94;36.94;101156.34;684587;28;22518;-66
2022/07/27 00:40:31;;;;;;;1016.00;949.22;;;;;;;20.95;36.75;101161.59;683921;28;38384;-66
2022/07/27 00:40:52;;;;;;;1003.53;937.22;;;;;;;20.90;36.82;101155.16;683185;28;57356;-66
2022/07/27 00:41:14;;;;;;;1020.25;953.40;;;;;;;20.87;36.93;101154.53;685105;28;960;-67
2022/07/27 00:41:35;;;;;;;1012.13;945.60;;;;;;;20.93;36.89;101163.75;683538;28;23440;-67
2022/07/27 00:41:57;;;;;;;1022.95;955.95;;;;;;;20.92;36.94;101159.31;683265;28;46287;-67
2022/07/27 00:42:25;;;;;;;1009.15;942.70;;;;;;;20.91;36.78;101159.56;683446;28;46323;-66
2022/07/27 00:42:46;;;;;;;1015.10;948.42;;;;;;;20.92;36.98;101164.00;681316;28;135656;-66
2022/07/27 00:43:07;;;;;;;1022.10;955.13;;;;;;;20.91;36.76;101159.56;684765;28;22400;-66
2022/07/27 00:43:30;;;;;;;976.22;911.00;;;;;;;20.87;37.01;101157.28;684582;28;23498;-66
2022/07/27 00:43:52;;;;;;;1004.03;937.75;;;;;;;20.88;36.93;101158.97;683599;28;46301;-66
2022/07/27 00:44:23;;;;;;;999.28;933.25;;;;;;;20.88;37.09;101163.63;683216;28;69396;-67
2022/07/27 00:44:45;;;;;;;1016.60;949.95;;;;;;;20.90;36.86;101160.66;680329;28;137764;-67
2022/07/27 00:45:08;;;;;;;996.88;930.92;;;;;;;20.87;36.91;101167.44;684207;28;22379;-67
2022/07/27 00:45:29;;;;;;;1014.88;948.20;;;;;;;20.87;36.93;101164.69;682883;28;69175;-67
2022/07/27 00:45:51;;;;;;;1039.95;972.30;;;;;;;20.83;37.07;101155.25;683355;28;46361;-68
2022/07/27 00:46:12;;;;;;;1039.90;972.30;;;;;;;20.86;36.98;101168.50;684356;28;22404;-67
2022/07/27 00:46:34;;;;;;;1024.10;957.22;;;;;;;20.85;37.11;101158.63;683676;28;22396;-67
2022/07/27 00:46:56;;;;;;;1029.82;962.58;;;;;;;20.86;36.91;101155.63;682357;28;68385;-66
2022/07/27 00:47:17;;;;;;;1043.50;975.55;;;;;;;20.84;37.01;101148.69;683121;28;46337;-67
2022/07/27 00:47:38;;;;;;;1037.22;969.63;;;;;;;20.84;37.07;101151.44;684171;28;23498;-67
2022/07/27 00:48:00;;;;;;;1032.38;965.03;;;;;;;20.82;37.12;101154.41;684515;28;23455;-67
2022/07/27 00:48:22;;;;;;;1031.13;963.88;;;;;;;20.82;37.18;101151.69;683540;28;46269;-67
2022/07/27 00:48:43;;;;;;;1041.97;974.25;;;;;;;20.76;37.00;101144.38;683297;28;43642;-67
2022/07/27 00:49:04;;;;;;;1023.45;956.42;;;;;;;20.83;37.08;101147.88;684124;28;22390;-66
2022/07/27 00:49:26;;;;;;;1036.68;969.10;;;;;;;20.84;37.21;101151.44;684349;28;21259;-67
2022/07/27 00:49:47;;;;;;;1008.08;941.53;;;;;;;20.82;37.26;101154.41;683430;28;46809;-67
2022/07/27 00:50:10;;;;;;;1000.95;934.75;;;;;;;20.80;37.43;101151.09;684259;28;22382;-67
2022/07/27 00:50:31;;;;;;;1010.88;944.28;;;;;;;20.85;37.40;101164.94;682374;28;69437;-67
2022/07/27 00:50:53;;;;;;;1002.95;936.65;;;;;;;20.85;37.27;101158.63;683551;28;46330;-67
2022/07/27 00:51:16;;;;;;;1008.80;942.33;;;;;;;20.79;37.07;101146.66;683935;28;43889;-67
2022/07/27 00:51:38;;;;;;;1023.22;956.08;;;;;;;20.81;37.22;101152.72;682083;28;67507;-67
2022/07/27 00:51:59;;;;;;;1018.97;952.03;;;;;;;20.81;37.15;101163.72;684522;28;23447;-67
2022/07/27 00:52:22;;;;;;;1000.60;934.35;;;;;;;20.80;37.21;101155.72;683549;28;44407;-67
2022/07/27 00:52:43;;;;;;;1001.22;935.00;;;;;;;20.79;37.30;101163.13;683635;28;46558;-67
2022/07/27 00:53:08;;;;;;;1004.10;937.72;;;;;;;20.75;37.38;101156.41;685143;28;1041;-67
2022/07/27 00:53:30;;;;;;;1011.55;944.95;;;;;;;20.79;37.38;101159.56;684039;28;14377;-67
2022/07/27 00:53:53;;;;;;;999.45;933.22;;;;;;;20.76;37.32;101152.63;682878;28;46126;-67
2022/07/27 00:54:15;;;;;;;1020.13;953.17;;;;;;;20.74;37.59;101153.94;683496;28;45559;-66
2022/07/27 00:54:37;;;;;;;1008.05;941.63;;;;;;;20.73;37.56;101164.06;683426;28;45510;-67
2022/07/27 00:54:59;;;;;;;1007.08;940.67;;;;;;;20.72;37.55;101161.56;682486;28;69449;-66
2022/07/27 00:55:20;;;;;;;1013.17;946.60;;;;;;;20.72;37.69;101167.91;682468;29;22253;-66
2022/07/27 00:55:44;;;;;;;1013.75;947.05;;;;;;;20.73;37.60;101165.97;680623;29;44388;-67
2022/07/27 00:56:06;;;;;;;1007.47;941.08;;;;;;;20.72;37.67;101161.56;679860;28;92233;-66
2022/07/27 00:56:28;;;;;;;1023.92;956.88;;;;;;;20.69;37.74;101155.47;682550;28;46266;-66
2022/07/27 00:56:49;;;;;;;1003.63;937.35;;;;;;;20.70;37.76;101157.16;684097;28;22313;-66
2022/07/27 00:57:12;;;;;;;1010.60;943.97;;;;;;;20.70;37.70;101157.16;682866;28;46185;-66
2022/07/27 00:57:34;;;;;;;1009.95;943.45;;;;;;;20.70;37.68;101161.78;682008;28;92161;-66
2022/07/27 00:57:55;;;;;;;1021.88;954.88;;;;;;;20.67;37.85;101159.50;684911;28;8952;-66
2022/07/27 00:58:16;;;;;;;1015.67;948.97;;;;;;;20.69;37.66;101157.38;684583;28;22380;-66
2022/07/27 00:58:39;;;;;;;1017.05;950.35;;;;;;;20.67;37.43;101151.28;684583;28;22278;-67
2022/07/27 00:59:00;;;;;;;1010.03;943.42;;;;;;;20.66;37.79;101163.34;682463;28;69333;-66
2022/07/27 00:59:21;;;;;;;1024.90;957.88;;;;;;;20.65;37.90;101159.75;685170;28;907;-66
2022/07/27 00:59:43;;;;;;;1024.47;957.42;;;;;;;20.61;37.97;101157.66;683502;28;45383;-66
2022/07/27 01:00:06;;;;;;;1034.82;967.35;;;;;;;20.63;37.79;101158.28;685109;28;8527;-66
2022/07/27 01:00:27;;;;;;;1043.28;975.47;;;;;;;20.65;37.80;101164.41;685347;28;1461;-66
2022/07/27 01:00:48;;;;;;;1047.22;979.30;;;;;;;20.64;37.81;101162.69;684336;28;22476;-66
2022/07/27 01:01:10;;;;;;;1036.80;969.33;;;;;;;20.62;37.87;101168.41;684067;28;46431;-65
2022/07/27 01:01:32;;;;;;;1032.57;965.25;;;;;;;20.62;38.22;101159.34;684647;28;4245;-66
2022/07/27 01:01:54;;;;;;;1029.40;962.20;;;;;;;20.60;38.03;101156.00;683750;28;46207;-66
2022/07/27 01:02:16;;;;;;;1035.72;968.22;;;;;;;20.63;37.92;101164.59;683728;28;46435;-65
2022/07/27 01:02:37;;;;;;;1026.43;959.33;;;;;;;20.60;38.04;101164.25;684929;28;22414;-66
2022/07/27 01:02:58;;;;;;;1037.45;969.85;;;;;;;20.60;38.11;101167.00;683636;28;45241;-66
2022/07/27 01:03:20;;;;;;;1031.18;963.88;;;;;;;20.58;38.33;101166.38;684661;28;20685;-66
2022/07/27 01:03:41;;;;;;;1027.43;960.30;;;;;;;20.53;38.54;101169.81;683354;28;44346;-66
2022/07/27 01:04:03;;;;;;;1030.57;963.33;;;;;;;20.55;38.27;101167.69;683874;28;23538;-66
2022/07/27 01:04:25;;;;;;;1038.53;971.00;;;;;;;20.55;38.20;101170.44;683434;28;45318;-66
2022/07/27 01:04:46;;;;;;;1031.75;964.33;;;;;;;20.56;38.46;101172.09;683382;28;45232;-66
2022/07/27 01:05:09;;;;;;;1031.55;964.22;;;;;;;20.53;38.48;101167.06;684508;28;21390;-66
2022/07/27 01:05:30;;;;;;;1026.57;959.45;;;;;;;20.52;38.42;101170.91;682444;28;67615;-66
2022/07/27 01:05:52;;;;;;;1012.83;946.22;;;;;;;20.55;38.37;101169.56;684475;28;21572;-65
2022/07/27 01:06:15;;;;;;;1011.45;944.90;;;;;;;20.55;38.56;101167.69;684725;28;22467;-66
2022/07/27 01:06:36;;;;;;;959.17;894.53;;;;;;;20.54;38.41;101166.00;682362;28;67553;-66
2022/07/27 01:06:57;;;;;;;975.55;910.25;;;;;;;20.56;38.43;101172.09;683867;28;22387;-66
2022/07/27 01:07:19;;;;;;;999.60;933.42;;;;;;;20.53;38.36;101167.91;683491;28;45251;-66
2022/07/27 01:07:40;;;;;;;1016.00;949.17;;;;;;;20.53;38.70;101173.41;684413;28;21187;-66
2022/07/27 01:08:02;;;;;;;1002.13;935.95;;;;;;;20.55;38.54;101170.44;684593;28;22407;-66
2022/07/27 01:08:24;;;;;;;1016.40;949.67;;;;;;;20.52;38.63;101163.50;683013;28;69426;-66
2022/07/27 01:08:45;;;;;;;1015.22;948.53;;;;;;;20.53;38.75;101173.41;683319;28;21544;-65
2022/07/27 01:09:55;;;;;;;1023.92;956.80;;;;;;;20.52;38.48;101166.25;680003;28;137820;-66
2022/07/27 01:10:18;;;;;;;1042.65;974.83;;;;;;;20.54;38.63;101166.00;680647;28;138629;-65
2022/07/27 01:10:40;;;;;;;1034.40;966.85;;;;;;;20.53;38.79;101164.31;682957;28;67379;-66
2022/07/27 01:11:03;;;;;;;1032.00;964.55;;;;;;;20.49;38.36;101166.69;684231;28;24274;-66
2022/07/27 01:11:24;;;;;;;1034.20;966.70;;;;;;;20.51;38.56;101170.03;681260;28;69485;-66
2022/07/27 01:11:48;;;;;;;1029.75;962.35;;;;;;;20.52;38.56;101170.91;687153;28;16588;-65
2022/07/27 01:12:13;;;;;;;1036.03;968.45;;;;;;;20.51;38.65;101172.78;684160;28;92260;-66
2022/07/27 01:12:34;;;;;;;1029.55;962.25;;;;;;;20.51;38.72;101171.97;683830;28;113691;-66
2022/07/27 01:12:56;;;;;;;1026.18;959.10;;;;;;;20.50;38.86;101170.28;687010;28;21132;-66
2022/07/27 01:13:18;;;;;;;1010.45;943.95;;;;;;;20.46;38.75;101172.66;686196;28;46094;-66
2022/07/27 01:13:41;;;;;;;997.55;931.45;;;;;;;20.48;38.78;101169.69;684378;28;45439;-65
2022/07/27 01:14:06;;;;;;;984.17;918.67;;;;;;;20.48;38.94;101167.75;682868;28;68252;-66
2022/07/27 01:14:28;;;;;;;988.85;923.15;;;;;;;20.47;38.84;101173.47;681519;28;115139;-66
2022/07/27 01:14:50;;;;;;;992.50;926.58;;;;;;;20.49;38.92;101174.94;683453;28;44139;-66
2022/07/27 01:15:12;;;;;;;1002.00;935.75;;;;;;;20.48;38.95;101166.94;683191;28;44844;-66
2022/07/27 01:15:34;;;;;;;999.13;933.05;;;;;;;20.43;38.98;101170.38;683557;28;45291;-66
2022/07/27 01:15:55;;;;;;;1002.85;936.63;;;;;;;20.41;38.95;101166.22;683374;28;46469;-66
2022/07/27 01:16:18;;;;;;;1015.20;948.50;;;;;;;20.45;39.12;101181.13;684489;28;22355;-66
2022/07/27 01:16:39;;;;;;;1001.08;934.85;;;;;;;20.44;38.94;101172.06;682795;28;46281;-66
2022/07/27 01:17:01;;;;;;;1023.33;956.23;;;;;;;20.47;39.06;101168.84;683131;28;46354;-66
2022/07/27 01:17:23;;;;;;;1006.00;939.50;;;;;;;20.45;39.18;101179.19;682305;28;67621;-65
2022/07/27 01:17:44;;;;;;;1002.45;936.20;;;;;;;20.45;39.01;101172.88;683634;28;45324;-66
2022/07/27 01:18:10;;;;;;;1010.58;944.05;;;;;;;20.42;39.31;101160.47;684647;28;22174;-66
2022/07/27 01:18:34;;;;;;;993.47;927.55;;;;;;;20.46;39.10;101169.09;680895;28;115113;-66
2022/07/27 01:18:55;;;;;;;1003.60;937.22;;;;;;;20.48;38.95;101169.69;681084;28;113257;-66
2022/07/27 01:19:17;;;;;;;1012.45;945.92;;;;;;;20.48;39.14;101161.44;684446;28;22384;-65
2022/07/27 01:19:38;;;;;;;1022.92;956.00;;;;;;;20.46;39.30;101163.59;684366;28;21553;-66
2022/07/27 01:19:59;;;;;;;1029.10;961.90;;;;;;;20.46;39.19;101175.41;685991;28;23466;-66
2022/07/27 01:20:21;;;;;;;1034.72;967.30;;;;;;;20.45;38.86;101170.13;683607;28;44380;-66
2022/07/27 01:20:42;;;;;;;1032.82;965.42;;;;;;;20.46;39.04;101171.81;682943;28;45255;-66
2022/07/27 01:21:06;;;;;;;1033.05;965.60;;;;;;;20.41;39.33;101171.69;683448;28;20899;-66
2022/07/27 01:21:27;;;;;;;1038.82;971.10;;;;;;;20.42;39.37;101165.94;681884;28;69369;-67
2022/07/27 01:21:50;;;;;;;1039.15;971.40;;;;;;;20.39;39.34;101174.66;684410;28;21462;-66
2022/07/27 01:22:12;;;;;;;1030.72;963.33;;;;;;;20.38;39.28;101174.91;682204;28;92488;-66
2022/07/27 01:22:33;;;;;;;1027.18;959.83;;;;;;;20.38;39.40;101172.16;684625;28;21533;-66
2022/07/27 01:22:54;;;;;;;1045.00;976.88;;;;;;;20.39;39.38;101179.28;684032;28;23855;-66
2022/07/27 01:23:15;;;;;;;1039.45;971.65;;;;;;;20.38;39.27;101178.47;683945;28;46367;-66
2022/07/27 01:23:43;;;;;;;997.15;930.85;;;;;;;20.34;39.39;101178.09;683006;28;60322;-66
2022/07/27 01:24:06;;;;;;;998.63;932.33;;;;;;;20.33;39.81;101173.69;683657;28;46427;-65
2022/07/27 01:24:27;;;;;;;994.95;928.88;;;;;;;20.35;39.45;101176.19;683055;28;67317;-66
2022/07/27 01:24:49;;;;;;;1013.75;947.03;;;;;;;20.34;39.71;101174.50;684095;28;22379;-66
2022/07/27 01:25:10;;;;;;;1025.85;958.63;;;;;;;20.29;39.46;101177.94;683857;28;45291;-66
2022/07/27 01:25:33;;;;;;;1020.17;953.10;;;;;;;20.29;39.76;101172.44;684282;28;22317;-66
2022/07/27 01:25:54;;;;;;;1016.97;950.03;;;;;;;20.30;39.70;101168.66;682119;28;68294;-66
2022/07/27 01:26:15;;;;;;;1007.33;940.78;;;;;;;20.32;39.64;101176.66;684841;28;22383;-66
2022/07/27 01:26:38;;;;;;;1010.58;943.95;;;;;;;20.28;39.51;101162.56;682542;28;46248;-66
2022/07/27 01:27:00;;;;;;;1034.55;966.92;;;;;;;20.30;39.51;101165.91;683008;28;46343;-66
2022/07/27 01:27:21;;;;;;;1034.93;967.28;;;;;;;20.35;39.59;101173.44;683619;28;46279;-66
2022/07/27 01:27:42;;;;;;;1011.38;944.67;;;;;;;20.34;39.42;101180.00;684730;28;21538;-66
2022/07/27 01:28:04;;;;;;;1012.40;945.67;;;;;;;20.34;39.52;101177.25;683503;28;44379;-66
2022/07/27 01:28:26;;;;;;;1030.75;963.35;;;;;;;20.30;39.53;101168.66;684816;28;22396;-66
2022/07/27 01:28:47;;;;;;;1006.05;939.55;;;;;;;20.31;39.53;101175.81;684091;28;46315;-66
2022/07/27 01:29:08;;;;;;;1005.35;938.85;;;;;;;20.30;39.72;101173.31;684581;28;21186;-66
2022/07/27 01:29:30;;;;;;;1004.28;937.88;;;;;;;20.28;39.57;101173.53;685281;28;23488;-66
2022/07/27 01:29:53;;;;;;;1016.80;949.85;;;;;;;20.29;39.71;101174.38;684580;28;31985;-66
2022/07/27 01:30:26;;;;;;;996.08;929.92;;;;;;;20.27;39.63;101171.84;684684;28;44185;-66
2022/07/27 01:30:47;;;;;;;1034.38;966.67;;;;;;;20.29;39.77;101166.13;680516;28;137538;-66
2022/07/27 01:31:08;;;;;;;1042.93;974.92;;;;;;;20.30;39.68;101171.41;685256;28;21518;-66
2022/07/27 01:31:30;;;;;;;1032.80;965.28;;;;;;;20.17;39.65;101149.63;684173;28;23403;-66
2022/07/27 01:31:52;;;;;;;1036.75;968.97;;;;;;;20.30;39.45;101165.91;684745;28;23534;-66
2022/07/27 01:32:13;;;;;;;1031.68;964.05;;;;;;;20.32;39.74;101179.41;683584;28;46405;-67
2022/07/27 01:32:34;;;;;;;1044.45;976.40;;;;;;;20.23;39.82;101167.06;683991;28;46362;-67
2022/07/27 01:32:59;;;;;;;1047.32;979.17;;;;;;;20.21;40.03;101164.56;684888;28;22519;-66
2022/07/27 01:33:25;;;;;;;1035.38;967.60;;;;;;;20.25;39.94;101173.16;681762;28;115087;-67
2022/07/27 01:33:46;;;;;;;1049.20;981.03;;;;;;;20.27;39.79;101168.28;680383;28;135796;-66
2022/07/27 01:34:07;;;;;;;1062.68;993.92;;;;;;;20.28;39.81;101176.28;683976;28;22257;-67
2022/07/27 01:34:29;;;;;;;1025.45;958.25;;;;;;;20.24;39.85;101172.31;684843;28;21388;-66
2022/07/27 01:34:51;;;;;;;1009.47;942.90;;;;;;;20.21;39.96;101164.56;683594;28;44027;-66
2022/07/27 01:35:12;;;;;;;987.78;921.95;;;;;;;20.23;40.02;101176.13;682501;28;69413;-67
2022/07/27 01:35:34;;;;;;;989.88;923.95;;;;;;;20.22;40.20;101173.59;684038;28;22379;-67
2022/07/27 01:35:56;;;;;;;1011.70;945.00;;;;;;;20.20;40.35;101175.75;683658;28;46265;-67
2022/07/27 01:36:17;;;;;;;974.90;909.65;;;;;;;20.19;40.21;101171.31;685012;28;22279;-67
2022/07/27 01:36:39;;;;;;;974.95;909.85;;;;;;;20.20;40.32;101173.00;683719;28;46293;-66
2022/07/27 01:37:03;;;;;;;993.85;927.95;;;;;;;20.22;40.39;101173.59;683726;28;46272;-66
2022/07/27 01:37:24;;;;;;;997.05;931.00;;;;;;;20.21;40.08;101174.69;682877;28;67245;-66
2022/07/27 01:37:45;;;;;;;1000.63;934.47;;;;;;;20.24;40.09;101180.56;684297;28;46568;-67
2022/07/27 01:38:11;;;;;;;1001.05;934.95;;;;;;;20.21;40.20;101171.94;684045;28;22338;-67
2022/07/27 01:38:32;;;;;;;1003.35;937.10;;;;;;;20.19;40.14;101174.94;680623;28;137818;-67